sensor_id;sensor_type;location;lat;lon;timestamp;P1;durP1;ratioP1;P2;durP2;ratioP2
7901;SDS011;3996;49.674;10.716;2023-02-28T00:01:28;3.30;;;2.83;;
7901;SDS011;3996;49.674;10.716;2023-02-28T00:03:53;3.20;;;2.70;;
7901;SDS011;3996;49.674;10.716;2023-02-28T00:06:19;4.27;;;3.33;;
7901;SDS011;3996;49.674;10.716;2023-02-28T00:08:45;3.33;;;2.17;;
7901;SDS011;3996;49.674;10.716;2023-02-28T00:11:12;3.63;;;2.90;;
7901;SDS011;3996;49.674;10.716;2023-02-28T00:13:40;2.87;;;2.50;;
7901;SDS011;3996;49.674;10.716;2023-02-28T00:16:12;5.03;;;2.70;;
7901;SDS011;3996;49.674;10.716;2023-02-28T00:18:40;4.33;;;2.80;;
7901;SDS011;3996;49.674;10.716;2023-02-28T00:21:06;2.80;;;2.53;;
7901;SDS011;3996;49.674;10.716;2023-02-28T00:23:32;4.33;;;2.67;;
7901;SDS011;3996;49.674;10.716;2023-02-28T00:25:57;4.23;;;2.60;;
7901;SDS011;3996;49.674;10.716;2023-02-28T00:28:23;3.20;;;2.77;;
7901;SDS011;3996;49.674;10.716;2023-02-28T00:30:49;5.63;;;3.17;;
7901;SDS011;3996;49.674;10.716;2023-02-28T00:33:15;4.50;;;2.60;;
7901;SDS011;3996;49.674;10.716;2023-02-28T00:35:41;3.57;;;2.60;;
7901;SDS011;3996;49.674;10.716;2023-02-28T00:38:07;3.03;;;2.63;;
7901;SDS011;3996;49.674;10.716;2023-02-28T00:40:33;5.17;;;3.00;;
7901;SDS011;3996;49.674;10.716;2023-02-28T00:42:58;3.23;;;2.90;;
7901;SDS011;3996;49.674;10.716;2023-02-28T00:45:24;4.87;;;2.70;;
7901;SDS011;3996;49.674;10.716;2023-02-28T00:47:49;2.83;;;2.53;;
7901;SDS011;3996;49.674;10.716;2023-02-28T00:50:16;4.10;;;2.90;;
7901;SDS011;3996;49.674;10.716;2023-02-28T00:52:45;4.77;;;2.83;;
7901;SDS011;3996;49.674;10.716;2023-02-28T00:55:12;3.20;;;2.60;;
7901;SDS011;3996;49.674;10.716;2023-02-28T00:57:38;3.70;;;3.20;;
7901;SDS011;3996;49.674;10.716;2023-02-28T01:00:04;4.40;;;2.83;;
7901;SDS011;3996;49.674;10.716;2023-02-28T01:02:30;3.10;;;2.57;;
7901;SDS011;3996;49.674;10.716;2023-02-28T01:04:56;4.20;;;2.80;;
7901;SDS011;3996;49.674;10.716;2023-02-28T01:07:24;3.73;;;2.90;;
7901;SDS011;3996;49.674;10.716;2023-02-28T01:09:49;4.13;;;2.90;;
7901;SDS011;3996;49.674;10.716;2023-02-28T01:12:15;4.37;;;3.23;;
7901;SDS011;3996;49.674;10.716;2023-02-28T01:14:41;3.83;;;2.80;;
7901;SDS011;3996;49.674;10.716;2023-02-28T01:17:07;3.00;;;2.70;;
7901;SDS011;3996;49.674;10.716;2023-02-28T01:19:33;3.47;;;2.60;;
7901;SDS011;3996;49.674;10.716;2023-02-28T01:22:02;4.20;;;2.70;;
7901;SDS011;3996;49.674;10.716;2023-02-28T01:24:29;3.60;;;2.93;;
7901;SDS011;3996;49.674;10.716;2023-02-28T01:26:55;4.53;;;2.83;;
7901;SDS011;3996;49.674;10.716;2023-02-28T01:29:20;3.93;;;3.10;;
7901;SDS011;3996;49.674;10.716;2023-02-28T01:31:46;5.53;;;3.37;;
7901;SDS011;3996;49.674;10.716;2023-02-28T01:34:11;3.57;;;2.77;;
7901;SDS011;3996;49.674;10.716;2023-02-28T01:36:37;4.33;;;3.30;;
7901;SDS011;3996;49.674;10.716;2023-02-28T01:39:03;3.07;;;2.57;;
7901;SDS011;3996;49.674;10.716;2023-02-28T01:41:30;5.10;;;3.50;;
7901;SDS011;3996;49.674;10.716;2023-02-28T01:43:58;3.73;;;3.00;;
7901;SDS011;3996;49.674;10.716;2023-02-28T01:46:24;4.83;;;3.37;;
7901;SDS011;3996;49.674;10.716;2023-02-28T01:48:51;4.23;;;3.07;;
7901;SDS011;3996;49.674;10.716;2023-02-28T01:51:34;4.87;;;2.77;;
7901;SDS011;3996;49.674;10.716;2023-02-28T01:54:26;4.97;;;3.43;;
7901;SDS011;3996;49.674;10.716;2023-02-28T01:56:56;4.27;;;3.20;;
7901;SDS011;3996;49.674;10.716;2023-02-28T01:59:59;4.40;;;3.00;;
7901;SDS011;3996;49.674;10.716;2023-02-28T02:02:20;4.83;;;3.40;;
7901;SDS011;3996;49.674;10.716;2023-02-28T02:04:58;5.50;;;3.47;;
7901;SDS011;3996;49.674;10.716;2023-02-28T02:07:32;4.20;;;3.03;;
7901;SDS011;3996;49.674;10.716;2023-02-28T02:12:47;5.23;;;3.23;;
7901;SDS011;3996;49.674;10.716;2023-02-28T02:15:38;3.50;;;3.17;;
7901;SDS011;3996;49.674;10.716;2023-02-28T02:18:19;4.60;;;3.10;;
7901;SDS011;3996;49.674;10.716;2023-02-28T02:32:03;4.07;;;3.10;;
7901;SDS011;3996;49.674;10.716;2023-02-28T02:37:21;4.03;;;3.20;;
7901;SDS011;3996;49.674;10.716;2023-02-28T02:42:21;4.80;;;2.80;;
7901;SDS011;3996;49.674;10.716;2023-02-28T02:44:59;3.90;;;3.20;;
7901;SDS011;3996;49.674;10.716;2023-02-28T02:47:29;3.87;;;3.00;;
7901;SDS011;3996;49.674;10.716;2023-02-28T02:49:57;4.87;;;3.50;;
7901;SDS011;3996;49.674;10.716;2023-02-28T02:52:31;5.13;;;3.20;;
7901;SDS011;3996;49.674;10.716;2023-02-28T02:55:01;4.80;;;3.07;;
7901;SDS011;3996;49.674;10.716;2023-02-28T02:57:32;4.83;;;3.13;;
7901;SDS011;3996;49.674;10.716;2023-02-28T03:00:03;5.83;;;3.30;;
7901;SDS011;3996;49.674;10.716;2023-02-28T03:02:33;4.67;;;3.43;;
7901;SDS011;3996;49.674;10.716;2023-02-28T03:05:02;4.83;;;3.30;;
7901;SDS011;3996;49.674;10.716;2023-02-28T03:07:33;7.03;;;3.50;;
7901;SDS011;3996;49.674;10.716;2023-02-28T03:09:59;3.77;;;3.17;;
7901;SDS011;3996;49.674;10.716;2023-02-28T03:12:32;4.47;;;3.13;;
7901;SDS011;3996;49.674;10.716;2023-02-28T03:17:45;5.47;;;3.40;;
7901;SDS011;3996;49.674;10.716;2023-02-28T03:21:00;3.87;;;3.00;;
7901;SDS011;3996;49.674;10.716;2023-02-28T03:24:08;4.20;;;3.30;;
7901;SDS011;3996;49.674;10.716;2023-02-28T03:26:31;3.57;;;2.80;;
7901;SDS011;3996;49.674;10.716;2023-02-28T03:29:15;4.17;;;3.50;;
7901;SDS011;3996;49.674;10.716;2023-02-28T03:32:03;4.33;;;3.30;;
7901;SDS011;3996;49.674;10.716;2023-02-28T03:34:48;4.60;;;3.20;;
7901;SDS011;3996;49.674;10.716;2023-02-28T03:37:29;4.10;;;3.20;;
7901;SDS011;3996;49.674;10.716;2023-02-28T03:40:10;3.90;;;3.17;;
7901;SDS011;3996;49.674;10.716;2023-02-28T03:42:39;5.67;;;3.30;;
7901;SDS011;3996;49.674;10.716;2023-02-28T03:45:10;6.90;;;3.43;;
7901;SDS011;3996;49.674;10.716;2023-02-28T03:47:41;3.63;;;2.93;;
7901;SDS011;3996;49.674;10.716;2023-02-28T03:50:34;3.93;;;3.10;;
7901;SDS011;3996;49.674;10.716;2023-02-28T03:53:17;6.67;;;3.63;;
7901;SDS011;3996;49.674;10.716;2023-02-28T03:55:56;5.83;;;3.30;;
7901;SDS011;3996;49.674;10.716;2023-02-28T03:59:09;4.10;;;3.03;;
7901;SDS011;3996;49.674;10.716;2023-02-28T04:01:35;4.53;;;3.53;;
7901;SDS011;3996;49.674;10.716;2023-02-28T04:04:07;5.00;;;3.30;;
7901;SDS011;3996;49.674;10.716;2023-02-28T04:06:34;4.63;;;3.40;;
7901;SDS011;3996;49.674;10.716;2023-02-28T04:09:01;4.73;;;3.50;;
7901;SDS011;3996;49.674;10.716;2023-02-28T04:11:45;4.23;;;2.93;;
7901;SDS011;3996;49.674;10.716;2023-02-28T04:14:16;4.83;;;3.60;;
7901;SDS011;3996;49.674;10.716;2023-02-28T04:16:41;4.13;;;3.23;;
7901;SDS011;3996;49.674;10.716;2023-02-28T04:19:08;5.17;;;3.70;;
7901;SDS011;3996;49.674;10.716;2023-02-28T04:21:35;4.80;;;3.50;;
7901;SDS011;3996;49.674;10.716;2023-02-28T04:24:04;5.60;;;3.20;;
7901;SDS011;3996;49.674;10.716;2023-02-28T04:26:30;5.70;;;3.63;;
7901;SDS011;3996;49.674;10.716;2023-02-28T04:28:58;6.60;;;3.63;;
7901;SDS011;3996;49.674;10.716;2023-02-28T04:31:24;5.70;;;3.50;;
7901;SDS011;3996;49.674;10.716;2023-02-28T04:33:50;5.23;;;3.40;;
7901;SDS011;3996;49.674;10.716;2023-02-28T04:36:16;4.73;;;3.43;;
7901;SDS011;3996;49.674;10.716;2023-02-28T04:38:45;5.27;;;3.90;;
7901;SDS011;3996;49.674;10.716;2023-02-28T04:41:14;7.23;;;3.70;;
7901;SDS011;3996;49.674;10.716;2023-02-28T04:43:40;6.40;;;3.73;;
7901;SDS011;3996;49.674;10.716;2023-02-28T04:46:06;5.90;;;4.00;;
7901;SDS011;3996;49.674;10.716;2023-02-28T04:48:32;4.30;;;3.30;;
7901;SDS011;3996;49.674;10.716;2023-02-28T04:51:09;4.97;;;3.60;;
7901;SDS011;3996;49.674;10.716;2023-02-28T04:53:36;5.30;;;3.57;;
7901;SDS011;3996;49.674;10.716;2023-02-28T04:56:03;5.80;;;3.83;;
7901;SDS011;3996;49.674;10.716;2023-02-28T04:58:29;5.20;;;3.53;;
7901;SDS011;3996;49.674;10.716;2023-02-28T05:01:00;8.23;;;3.77;;
7901;SDS011;3996;49.674;10.716;2023-02-28T05:03:45;6.50;;;4.07;;
7901;SDS011;3996;49.674;10.716;2023-02-28T05:06:12;7.93;;;4.50;;
7901;SDS011;3996;49.674;10.716;2023-02-28T05:08:38;6.00;;;3.87;;
7901;SDS011;3996;49.674;10.716;2023-02-28T05:11:06;6.37;;;4.20;;
7901;SDS011;3996;49.674;10.716;2023-02-28T05:13:36;6.43;;;4.53;;
7901;SDS011;3996;49.674;10.716;2023-02-28T05:16:02;6.67;;;4.20;;
7901;SDS011;3996;49.674;10.716;2023-02-28T05:18:28;8.47;;;4.57;;
7901;SDS011;3996;49.674;10.716;2023-02-28T05:20:53;5.53;;;3.57;;
7901;SDS011;3996;49.674;10.716;2023-02-28T05:23:19;5.97;;;4.03;;
7901;SDS011;3996;49.674;10.716;2023-02-28T05:25:46;7.40;;;4.03;;
7901;SDS011;3996;49.674;10.716;2023-02-28T05:28:11;5.37;;;4.23;;
7901;SDS011;3996;49.674;10.716;2023-02-28T05:30:37;6.47;;;4.03;;
7901;SDS011;3996;49.674;10.716;2023-02-28T05:33:02;5.70;;;4.20;;
7901;SDS011;3996;49.674;10.716;2023-02-28T05:35:28;6.57;;;4.43;;
7901;SDS011;3996;49.674;10.716;2023-02-28T05:37:54;6.83;;;4.60;;
7901;SDS011;3996;49.674;10.716;2023-02-28T05:40:19;7.80;;;4.30;;
7901;SDS011;3996;49.674;10.716;2023-02-28T05:42:45;5.63;;;4.07;;
7901;SDS011;3996;49.674;10.716;2023-02-28T05:45:11;6.67;;;4.27;;
7901;SDS011;3996;49.674;10.716;2023-02-28T05:47:37;7.03;;;4.47;;
7901;SDS011;3996;49.674;10.716;2023-02-28T05:50:03;7.50;;;4.30;;
7901;SDS011;3996;49.674;10.716;2023-02-28T05:52:30;8.43;;;4.37;;
7901;SDS011;3996;49.674;10.716;2023-02-28T05:54:56;6.37;;;4.47;;
7901;SDS011;3996;49.674;10.716;2023-02-28T05:57:22;6.93;;;4.87;;
7901;SDS011;3996;49.674;10.716;2023-02-28T05:59:47;9.83;;;5.57;;
7901;SDS011;3996;49.674;10.716;2023-02-28T06:02:14;8.07;;;4.87;;
7901;SDS011;3996;49.674;10.716;2023-02-28T06:04:40;7.23;;;4.73;;
7901;SDS011;3996;49.674;10.716;2023-02-28T06:07:07;9.13;;;5.00;;
7901;SDS011;3996;49.674;10.716;2023-02-28T06:09:33;6.57;;;4.60;;
7901;SDS011;3996;49.674;10.716;2023-02-28T06:11:59;7.03;;;4.77;;
7901;SDS011;3996;49.674;10.716;2023-02-28T06:14:27;6.57;;;4.70;;
7901;SDS011;3996;49.674;10.716;2023-02-28T06:16:52;8.43;;;5.30;;
7901;SDS011;3996;49.674;10.716;2023-02-28T06:19:18;7.50;;;4.97;;
7901;SDS011;3996;49.674;10.716;2023-02-28T06:21:43;8.37;;;4.70;;
7901;SDS011;3996;49.674;10.716;2023-02-28T06:24:09;7.87;;;5.07;;
7901;SDS011;3996;49.674;10.716;2023-02-28T06:26:35;6.60;;;4.80;;
7901;SDS011;3996;49.674;10.716;2023-02-28T06:29:01;7.07;;;4.83;;
7901;SDS011;3996;49.674;10.716;2023-02-28T06:31:27;9.90;;;5.30;;
7901;SDS011;3996;49.674;10.716;2023-02-28T06:33:54;8.07;;;5.23;;
7901;SDS011;3996;49.674;10.716;2023-02-28T06:36:20;7.23;;;4.67;;
7901;SDS011;3996;49.674;10.716;2023-02-28T06:38:45;8.73;;;5.10;;
7901;SDS011;3996;49.674;10.716;2023-02-28T06:41:16;6.40;;;4.37;;
7901;SDS011;3996;49.674;10.716;2023-02-28T06:43:42;6.60;;;4.87;;
7901;SDS011;3996;49.674;10.716;2023-02-28T06:46:08;6.43;;;4.60;;
7901;SDS011;3996;49.674;10.716;2023-02-28T06:48:37;6.40;;;4.60;;
7901;SDS011;3996;49.674;10.716;2023-02-28T06:51:07;6.20;;;4.30;;
7901;SDS011;3996;49.674;10.716;2023-02-28T06:53:34;5.83;;;4.30;;
7901;SDS011;3996;49.674;10.716;2023-02-28T06:56:03;6.10;;;4.27;;
7901;SDS011;3996;49.674;10.716;2023-02-28T06:58:31;8.03;;;5.30;;
7901;SDS011;3996;49.674;10.716;2023-02-28T07:00:57;13.00;;;7.20;;
7901;SDS011;3996;49.674;10.716;2023-02-28T07:03:22;7.17;;;4.93;;
7901;SDS011;3996;49.674;10.716;2023-02-28T07:05:48;11.17;;;6.83;;
7901;SDS011;3996;49.674;10.716;2023-02-28T07:08:13;7.73;;;5.37;;
7901;SDS011;3996;49.674;10.716;2023-02-28T07:10:39;7.20;;;5.00;;
7901;SDS011;3996;49.674;10.716;2023-02-28T07:13:05;7.37;;;5.10;;
7901;SDS011;3996;49.674;10.716;2023-02-28T07:15:32;6.83;;;4.70;;
7901;SDS011;3996;49.674;10.716;2023-02-28T07:17:57;5.40;;;4.40;;
7901;SDS011;3996;49.674;10.716;2023-02-28T07:20:23;8.43;;;4.70;;
7901;SDS011;3996;49.674;10.716;2023-02-28T07:22:50;6.77;;;4.43;;
7901;SDS011;3996;49.674;10.716;2023-02-28T07:25:21;8.70;;;4.70;;
7901;SDS011;3996;49.674;10.716;2023-02-28T07:27:48;7.10;;;5.10;;
7901;SDS011;3996;49.674;10.716;2023-02-28T07:30:14;7.80;;;4.77;;
7901;SDS011;3996;49.674;10.716;2023-02-28T07:32:39;7.70;;;4.73;;
7901;SDS011;3996;49.674;10.716;2023-02-28T07:35:05;7.50;;;5.20;;
7901;SDS011;3996;49.674;10.716;2023-02-28T07:37:31;7.33;;;5.03;;
7901;SDS011;3996;49.674;10.716;2023-02-28T07:40:01;6.77;;;4.97;;
7901;SDS011;3996;49.674;10.716;2023-02-28T07:42:36;7.10;;;4.97;;
7901;SDS011;3996;49.674;10.716;2023-02-28T07:45:03;7.43;;;5.47;;
7901;SDS011;3996;49.674;10.716;2023-02-28T07:47:30;7.70;;;5.30;;
7901;SDS011;3996;49.674;10.716;2023-02-28T07:49:56;7.43;;;5.50;;
7901;SDS011;3996;49.674;10.716;2023-02-28T07:52:22;8.17;;;5.80;;
7901;SDS011;3996;49.674;10.716;2023-02-28T07:54:48;9.00;;;5.53;;
7901;SDS011;3996;49.674;10.716;2023-02-28T07:57:17;6.30;;;4.87;;
7901;SDS011;3996;49.674;10.716;2023-02-28T07:59:43;8.80;;;5.30;;
7901;SDS011;3996;49.674;10.716;2023-02-28T08:02:12;7.23;;;5.20;;
7901;SDS011;3996;49.674;10.716;2023-02-28T08:04:39;8.47;;;5.70;;
7901;SDS011;3996;49.674;10.716;2023-02-28T08:07:05;11.37;;;5.53;;
7901;SDS011;3996;49.674;10.716;2023-02-28T08:09:31;6.00;;;4.93;;
7901;SDS011;3996;49.674;10.716;2023-02-28T08:11:56;7.87;;;5.67;;
7901;SDS011;3996;49.674;10.716;2023-02-28T08:14:22;7.90;;;6.13;;
7901;SDS011;3996;49.674;10.716;2023-02-28T08:16:47;10.53;;;7.00;;
7901;SDS011;3996;49.674;10.716;2023-02-28T08:19:13;8.33;;;6.07;;
7901;SDS011;3996;49.674;10.716;2023-02-28T08:21:38;8.30;;;6.17;;
7901;SDS011;3996;49.674;10.716;2023-02-28T08:24:05;8.13;;;6.00;;
7901;SDS011;3996;49.674;10.716;2023-02-28T08:26:31;8.30;;;5.80;;
7901;SDS011;3996;49.674;10.716;2023-02-28T08:28:56;8.20;;;6.13;;
7901;SDS011;3996;49.674;10.716;2023-02-28T08:31:22;9.17;;;6.30;;
7901;SDS011;3996;49.674;10.716;2023-02-28T08:33:48;8.57;;;6.30;;
7901;SDS011;3996;49.674;10.716;2023-02-28T08:36:16;9.37;;;6.60;;
7901;SDS011;3996;49.674;10.716;2023-02-28T08:38:42;8.17;;;6.07;;
7901;SDS011;3996;49.674;10.716;2023-02-28T08:41:08;8.37;;;6.13;;
7901;SDS011;3996;49.674;10.716;2023-02-28T08:43:36;9.77;;;6.63;;
7901;SDS011;3996;49.674;10.716;2023-02-28T08:46:02;10.90;;;7.63;;
7901;SDS011;3996;49.674;10.716;2023-02-28T08:48:29;13.63;;;6.83;;
7901;SDS011;3996;49.674;10.716;2023-02-28T08:51:04;10.77;;;6.50;;
7901;SDS011;3996;49.674;10.716;2023-02-28T08:53:32;7.83;;;6.43;;
7901;SDS011;3996;49.674;10.716;2023-02-28T08:56:01;8.97;;;6.60;;
7901;SDS011;3996;49.674;10.716;2023-02-28T08:58:29;8.13;;;5.97;;
7901;SDS011;3996;49.674;10.716;2023-02-28T09:00:55;8.50;;;6.23;;
7901;SDS011;3996;49.674;10.716;2023-02-28T09:03:21;7.90;;;5.73;;
7901;SDS011;3996;49.674;10.716;2023-02-28T09:05:54;7.27;;;5.90;;
7901;SDS011;3996;49.674;10.716;2023-02-28T09:08:21;8.80;;;6.50;;
7901;SDS011;3996;49.674;10.716;2023-02-28T09:10:48;8.03;;;6.13;;
7901;SDS011;3996;49.674;10.716;2023-02-28T09:13:14;8.17;;;5.73;;
7901;SDS011;3996;49.674;10.716;2023-02-28T09:15:39;8.60;;;6.03;;
7901;SDS011;3996;49.674;10.716;2023-02-28T09:18:05;7.50;;;5.73;;
7901;SDS011;3996;49.674;10.716;2023-02-28T09:20:31;8.57;;;5.97;;
7901;SDS011;3996;49.674;10.716;2023-02-28T09:22:57;10.33;;;5.93;;
7901;SDS011;3996;49.674;10.716;2023-02-28T09:25:22;7.57;;;6.47;;
7901;SDS011;3996;49.674;10.716;2023-02-28T09:27:48;9.17;;;5.67;;
7901;SDS011;3996;49.674;10.716;2023-02-28T09:30:13;9.50;;;6.03;;
7901;SDS011;3996;49.674;10.716;2023-02-28T09:32:39;6.87;;;5.30;;
7901;SDS011;3996;49.674;10.716;2023-02-28T09:35:05;9.50;;;6.13;;
7901;SDS011;3996;49.674;10.716;2023-02-28T09:37:31;7.50;;;5.87;;
7901;SDS011;3996;49.674;10.716;2023-02-28T09:39:57;10.60;;;6.57;;
7901;SDS011;3996;49.674;10.716;2023-02-28T09:42:31;9.13;;;6.50;;
7901;SDS011;3996;49.674;10.716;2023-02-28T09:44:58;9.27;;;6.67;;
7901;SDS011;3996;49.674;10.716;2023-02-28T09:47:29;10.13;;;6.40;;
7901;SDS011;3996;49.674;10.716;2023-02-28T09:49:59;7.37;;;5.87;;
7901;SDS011;3996;49.674;10.716;2023-02-28T09:52:31;8.67;;;5.97;;
7901;SDS011;3996;49.674;10.716;2023-02-28T09:55:04;15.77;;;6.50;;
7901;SDS011;3996;49.674;10.716;2023-02-28T09:57:40;8.87;;;6.37;;
7901;SDS011;3996;49.674;10.716;2023-02-28T10:05:38;8.20;;;5.77;;
7901;SDS011;3996;49.674;10.716;2023-02-28T10:10:45;7.80;;;5.73;;
7901;SDS011;3996;49.674;10.716;2023-02-28T10:13:25;7.63;;;5.77;;
7901;SDS011;3996;49.674;10.716;2023-02-28T10:16:08;6.60;;;5.03;;
7901;SDS011;3996;49.674;10.716;2023-02-28T10:18:43;7.73;;;5.30;;
7901;SDS011;3996;49.674;10.716;2023-02-28T10:24:20;5.93;;;4.97;;
7901;SDS011;3996;49.674;10.716;2023-02-28T10:26:56;7.30;;;4.87;;
7901;SDS011;3996;49.674;10.716;2023-02-28T10:29:27;6.70;;;5.50;;
7901;SDS011;3996;49.674;10.716;2023-02-28T10:32:01;6.70;;;4.80;;
7901;SDS011;3996;49.674;10.716;2023-02-28T10:34:28;10.60;;;5.07;;
7901;SDS011;3996;49.674;10.716;2023-02-28T10:36:53;8.37;;;5.03;;
7901;SDS011;3996;49.674;10.716;2023-02-28T10:42:18;6.93;;;5.67;;
7901;SDS011;3996;49.674;10.716;2023-02-28T10:44:47;6.73;;;5.47;;
7901;SDS011;3996;49.674;10.716;2023-02-28T10:47:16;8.07;;;4.97;;
7901;SDS011;3996;49.674;10.716;2023-02-28T10:49:48;10.07;;;5.20;;
7901;SDS011;3996;49.674;10.716;2023-02-28T10:52:15;6.53;;;5.00;;
7901;SDS011;3996;49.674;10.716;2023-02-28T10:55:14;6.40;;;5.10;;
7901;SDS011;3996;49.674;10.716;2023-02-28T10:57:50;7.00;;;4.70;;
7901;SDS011;3996;49.674;10.716;2023-02-28T11:00:22;4.87;;;4.13;;
7901;SDS011;3996;49.674;10.716;2023-02-28T11:02:50;5.53;;;4.43;;
7901;SDS011;3996;49.674;10.716;2023-02-28T11:07:53;9.67;;;6.00;;
7901;SDS011;3996;49.674;10.716;2023-02-28T11:10:20;6.60;;;5.10;;
7901;SDS011;3996;49.674;10.716;2023-02-28T11:12:48;6.70;;;5.37;;
7901;SDS011;3996;49.674;10.716;2023-02-28T11:20:28;7.07;;;5.50;;
7901;SDS011;3996;49.674;10.716;2023-02-28T11:22:56;7.23;;;5.30;;
7901;SDS011;3996;49.674;10.716;2023-02-28T11:25:27;6.37;;;5.20;;
7901;SDS011;3996;49.674;10.716;2023-02-28T11:27:59;7.90;;;5.40;;
7901;SDS011;3996;49.674;10.716;2023-02-28T11:33:20;7.47;;;5.23;;
7901;SDS011;3996;49.674;10.716;2023-02-28T11:35:53;6.63;;;4.90;;
7901;SDS011;3996;49.674;10.716;2023-02-28T11:38:24;7.73;;;5.30;;
7901;SDS011;3996;49.674;10.716;2023-02-28T11:40:58;7.70;;;5.13;;
7901;SDS011;3996;49.674;10.716;2023-02-28T11:46:33;6.53;;;5.40;;
7901;SDS011;3996;49.674;10.716;2023-02-28T12:00:28;8.70;;;4.90;;
7901;SDS011;3996;49.674;10.716;2023-02-28T12:06:08;7.43;;;5.60;;
7901;SDS011;3996;49.674;10.716;2023-02-28T12:22:28;7.50;;;5.00;;
7901;SDS011;3996;49.674;10.716;2023-02-28T12:28:01;7.07;;;6.13;;
7901;SDS011;3996;49.674;10.716;2023-02-28T12:30:30;7.33;;;5.53;;
7901;SDS011;3996;49.674;10.716;2023-02-28T12:33:08;6.63;;;5.40;;
7901;SDS011;3996;49.674;10.716;2023-02-28T12:38:19;8.97;;;5.73;;
7901;SDS011;3996;49.674;10.716;2023-02-28T12:40:51;8.03;;;5.87;;
7901;SDS011;3996;49.674;10.716;2023-02-28T12:43:22;7.27;;;5.43;;
7901;SDS011;3996;49.674;10.716;2023-02-28T12:45:56;6.00;;;5.00;;
7901;SDS011;3996;49.674;10.716;2023-02-28T12:50:54;9.20;;;5.37;;
7901;SDS011;3996;49.674;10.716;2023-02-28T12:56:22;8.00;;;6.03;;
7901;SDS011;3996;49.674;10.716;2023-02-28T12:59:00;7.97;;;5.47;;
7901;SDS011;3996;49.674;10.716;2023-02-28T13:01:47;6.60;;;5.47;;
7901;SDS011;3996;49.674;10.716;2023-02-28T13:11:06;7.60;;;5.23;;
7901;SDS011;3996;49.674;10.716;2023-02-28T13:13:32;6.67;;;5.20;;
7901;SDS011;3996;49.674;10.716;2023-02-28T13:18:35;7.07;;;5.57;;
7901;SDS011;3996;49.674;10.716;2023-02-28T13:21:04;6.70;;;5.47;;
7901;SDS011;3996;49.674;10.716;2023-02-28T13:34:30;7.70;;;5.50;;
7901;SDS011;3996;49.674;10.716;2023-02-28T13:39:48;7.60;;;5.80;;
7901;SDS011;3996;49.674;10.716;2023-02-28T13:42:37;7.00;;;5.43;;
7901;SDS011;3996;49.674;10.716;2023-02-28T13:55:51;9.60;;;6.00;;
7901;SDS011;3996;49.674;10.716;2023-02-28T13:58:27;8.70;;;6.00;;
7901;SDS011;3996;49.674;10.716;2023-02-28T14:04:14;8.57;;;5.67;;
7901;SDS011;3996;49.674;10.716;2023-02-28T14:07:03;6.57;;;5.13;;
7901;SDS011;3996;49.674;10.716;2023-02-28T14:12:18;10.23;;;6.13;;
7901;SDS011;3996;49.674;10.716;2023-02-28T14:15:01;8.93;;;6.10;;
7901;SDS011;3996;49.674;10.716;2023-02-28T14:17:30;9.10;;;6.07;;
7901;SDS011;3996;49.674;10.716;2023-02-28T14:19:56;8.40;;;6.03;;
7901;SDS011;3996;49.674;10.716;2023-02-28T14:22:37;7.70;;;5.93;;
7901;SDS011;3996;49.674;10.716;2023-02-28T14:27:45;8.57;;;6.07;;
7901;SDS011;3996;49.674;10.716;2023-02-28T14:36:27;8.53;;;5.93;;
7901;SDS011;3996;49.674;10.716;2023-02-28T14:39:03;8.07;;;5.73;;
7901;SDS011;3996;49.674;10.716;2023-02-28T14:41:33;9.60;;;6.53;;
7901;SDS011;3996;49.674;10.716;2023-02-28T14:46:44;8.43;;;5.87;;
7901;SDS011;3996;49.674;10.716;2023-02-28T14:49:15;10.17;;;7.20;;
7901;SDS011;3996;49.674;10.716;2023-02-28T14:51:44;9.03;;;6.40;;
7901;SDS011;3996;49.674;10.716;2023-02-28T14:54:13;10.93;;;6.10;;
7901;SDS011;3996;49.674;10.716;2023-02-28T14:56:40;7.30;;;5.83;;
7901;SDS011;3996;49.674;10.716;2023-02-28T14:59:22;8.03;;;6.50;;
7901;SDS011;3996;49.674;10.716;2023-02-28T15:04:58;8.83;;;6.33;;
7901;SDS011;3996;49.674;10.716;2023-02-28T15:07:26;9.20;;;6.20;;
7901;SDS011;3996;49.674;10.716;2023-02-28T15:12:41;9.13;;;5.83;;
7901;SDS011;3996;49.674;10.716;2023-02-28T15:15:38;9.43;;;6.47;;
7901;SDS011;3996;49.674;10.716;2023-02-28T15:21:13;8.30;;;5.93;;
7901;SDS011;3996;49.674;10.716;2023-02-28T15:23:46;9.47;;;6.43;;
7901;SDS011;3996;49.674;10.716;2023-02-28T15:26:16;12.03;;;6.63;;
7901;SDS011;3996;49.674;10.716;2023-02-28T15:28:45;8.57;;;6.27;;
7901;SDS011;3996;49.674;10.716;2023-02-28T15:31:19;7.97;;;6.20;;
7901;SDS011;3996;49.674;10.716;2023-02-28T15:34:12;7.57;;;5.77;;
7901;SDS011;3996;49.674;10.716;2023-02-28T15:36:42;7.50;;;6.03;;
7901;SDS011;3996;49.674;10.716;2023-02-28T15:39:18;8.43;;;6.00;;
7901;SDS011;3996;49.674;10.716;2023-02-28T15:41:46;8.03;;;6.30;;
7901;SDS011;3996;49.674;10.716;2023-02-28T15:44:15;9.23;;;6.10;;
7901;SDS011;3996;49.674;10.716;2023-02-28T15:46:56;9.47;;;6.47;;
7901;SDS011;3996;49.674;10.716;2023-02-28T15:49:49;9.73;;;5.60;;
7901;SDS011;3996;49.674;10.716;2023-02-28T15:52:19;9.37;;;6.00;;
7901;SDS011;3996;49.674;10.716;2023-02-28T15:54:52;7.53;;;5.60;;
7901;SDS011;3996;49.674;10.716;2023-02-28T15:57:22;8.47;;;6.03;;
7901;SDS011;3996;49.674;10.716;2023-02-28T15:59:55;6.00;;;5.23;;
7901;SDS011;3996;49.674;10.716;2023-02-28T16:07:33;8.70;;;5.87;;
7901;SDS011;3996;49.674;10.716;2023-02-28T16:10:03;9.23;;;6.30;;
7901;SDS011;3996;49.674;10.716;2023-02-28T16:12:30;10.07;;;6.20;;
7901;SDS011;3996;49.674;10.716;2023-02-28T16:14:59;8.47;;;6.53;;
7901;SDS011;3996;49.674;10.716;2023-02-28T16:17:42;8.57;;;6.30;;
7901;SDS011;3996;49.674;10.716;2023-02-28T16:20:21;8.87;;;6.80;;
7901;SDS011;3996;49.674;10.716;2023-02-28T16:22:49;8.83;;;6.43;;
7901;SDS011;3996;49.674;10.716;2023-02-28T16:25:16;8.80;;;5.70;;
7901;SDS011;3996;49.674;10.716;2023-02-28T16:27:45;8.80;;;6.43;;
7901;SDS011;3996;49.674;10.716;2023-02-28T16:30:20;8.23;;;6.03;;
7901;SDS011;3996;49.674;10.716;2023-02-28T16:32:48;8.97;;;6.20;;
7901;SDS011;3996;49.674;10.716;2023-02-28T16:35:15;8.27;;;6.20;;
7901;SDS011;3996;49.674;10.716;2023-02-28T16:37:41;13.90;;;6.47;;
7901;SDS011;3996;49.674;10.716;2023-02-28T16:40:17;8.53;;;6.10;;
7901;SDS011;3996;49.674;10.716;2023-02-28T16:42:51;7.70;;;5.53;;
7901;SDS011;3996;49.674;10.716;2023-02-28T16:45:24;8.50;;;6.67;;
7901;SDS011;3996;49.674;10.716;2023-02-28T16:47:52;7.53;;;5.77;;
7901;SDS011;3996;49.674;10.716;2023-02-28T16:50:19;7.57;;;5.70;;
7901;SDS011;3996;49.674;10.716;2023-02-28T16:52:52;8.83;;;6.37;;
7901;SDS011;3996;49.674;10.716;2023-02-28T16:55:19;9.00;;;6.40;;
7901;SDS011;3996;49.674;10.716;2023-02-28T16:57:47;10.80;;;6.63;;
7901;SDS011;3996;49.674;10.716;2023-02-28T17:00:16;10.53;;;6.70;;
7901;SDS011;3996;49.674;10.716;2023-02-28T17:02:43;10.20;;;7.40;;
7901;SDS011;3996;49.674;10.716;2023-02-28T17:05:10;10.50;;;7.77;;
7901;SDS011;3996;49.674;10.716;2023-02-28T17:07:37;10.80;;;7.13;;
7901;SDS011;3996;49.674;10.716;2023-02-28T17:10:09;9.23;;;6.60;;
7901;SDS011;3996;49.674;10.716;2023-02-28T17:12:43;9.10;;;6.80;;
7901;SDS011;3996;49.674;10.716;2023-02-28T17:15:09;9.07;;;6.97;;
7901;SDS011;3996;49.674;10.716;2023-02-28T17:17:36;11.97;;;8.00;;
7901;SDS011;3996;49.674;10.716;2023-02-28T17:20:02;15.40;;;8.60;;
7901;SDS011;3996;49.674;10.716;2023-02-28T17:22:29;12.50;;;8.63;;
7901;SDS011;3996;49.674;10.716;2023-02-28T17:24:55;9.93;;;7.20;;
7901;SDS011;3996;49.674;10.716;2023-02-28T17:27:20;11.17;;;7.40;;
7901;SDS011;3996;49.674;10.716;2023-02-28T17:29:46;11.50;;;7.20;;
7901;SDS011;3996;49.674;10.716;2023-02-28T17:32:12;10.23;;;7.13;;
7901;SDS011;3996;49.674;10.716;2023-02-28T17:34:38;9.20;;;7.17;;
7901;SDS011;3996;49.674;10.716;2023-02-28T17:37:03;11.50;;;7.70;;
7901;SDS011;3996;49.674;10.716;2023-02-28T17:39:29;11.57;;;7.50;;
7901;SDS011;3996;49.674;10.716;2023-02-28T17:41:56;13.23;;;8.90;;
7901;SDS011;3996;49.674;10.716;2023-02-28T17:44:22;13.23;;;9.10;;
7901;SDS011;3996;49.674;10.716;2023-02-28T17:46:49;12.70;;;9.10;;
7901;SDS011;3996;49.674;10.716;2023-02-28T17:49:15;11.77;;;8.50;;
7901;SDS011;3996;49.674;10.716;2023-02-28T17:51:42;11.43;;;8.10;;